sensor_id;sensor_type;location;lat;lon;timestamp;pressure;altitude;pressure_sealevel;temperature;humidity
5703;BME280;2876;51.738;10.050;2023-11-21T00:00:58;98627.88;;;5.29;100.00
5703;BME280;2876;51.738;10.050;2023-11-21T00:07:03;98638.50;;;5.29;100.00
5703;BME280;2876;51.738;10.050;2023-11-21T00:13:05;98640.44;;;5.20;100.00
5703;BME280;2876;51.738;10.050;2023-11-21T00:19:07;98633.38;;;5.27;100.00
5703;BME280;2876;51.738;10.050;2023-11-21T00:25:09;98639.88;;;5.40;100.00
5703;BME280;2876;51.738;10.050;2023-11-21T00:31:12;98645.78;;;5.50;100.00
5703;BME280;2876;51.738;10.050;2023-11-21T00:37:14;98663.91;;;5.61;100.00
5703;BME280;2876;51.738;10.050;2023-11-21T00:43:16;98668.47;;;5.67;100.00
5703;BME280;2876;51.738;10.050;2023-11-21T00:49:18;98677.84;;;5.93;100.00
5703;BME280;2876;51.738;10.050;2023-11-21T00:55:21;98675.81;;;6.09;100.00
5703;BME280;2876;51.738;10.050;2023-11-21T01:01:23;98675.22;;;6.29;100.00
5703;BME280;2876;51.738;10.050;2023-11-21T01:07:26;98683.44;;;6.34;100.00
5703;BME280;2876;51.738;10.050;2023-11-21T01:13:29;98688.22;;;6.39;100.00
5703;BME280;2876;51.738;10.050;2023-11-21T01:19:31;98694.94;;;6.34;100.00
5703;BME280;2876;51.738;10.050;2023-11-21T01:25:33;98680.31;;;6.45;100.00
5703;BME280;2876;51.738;10.050;2023-11-21T01:31:35;98689.25;;;6.59;100.00
5703;BME280;2876;51.738;10.050;2023-11-21T01:37:38;98689.75;;;6.69;100.00
5703;BME280;2876;51.738;10.050;2023-11-21T01:43:41;98698.69;;;6.61;100.00
5703;BME280;2876;51.738;10.050;2023-11-21T01:49:44;98709.91;;;6.57;100.00
5703;BME280;2876;51.738;10.050;2023-11-21T01:55:47;98703.44;;;6.45;100.00
5703;BME280;2876;51.738;10.050;2023-11-21T02:01:49;98704.59;;;6.21;100.00
5703;BME280;2876;51.738;10.050;2023-11-21T02:07:54;98722.53;;;5.97;100.00
5703;BME280;2876;51.738;10.050;2023-11-21T02:13:59;98726.28;;;5.58;100.00
5703;BME280;2876;51.738;10.050;2023-11-21T02:20:03;98725.56;;;5.65;100.00
5703;BME280;2876;51.738;10.050;2023-11-21T02:26:05;98725.09;;;5.76;100.00
5703;BME280;2876;51.738;10.050;2023-11-21T02:32:07;98721.78;;;5.89;100.00
5703;BME280;2876;51.738;10.050;2023-11-21T02:38:12;98720.91;;;5.96;100.00
5703;BME280;2876;51.738;10.050;2023-11-21T02:44:14;98721.38;;;6.00;100.00
5703;BME280;2876;51.738;10.050;2023-11-21T02:50:16;98724.59;;;5.95;100.00
5703;BME280;2876;51.738;10.050;2023-11-21T02:56:22;98731.09;;;5.93;100.00
5703;BME280;2876;51.738;10.050;2023-11-21T03:02:24;98722.72;;;6.10;100.00
5703;BME280;2876;51.738;10.050;2023-11-21T03:08:26;98732.25;;;6.20;100.00
5703;BME280;2876;51.738;10.050;2023-11-21T03:14:28;98733.16;;;6.27;100.00
5703;BME280;2876;51.738;10.050;2023-11-21T03:20:30;98737.63;;;6.26;100.00
5703;BME280;2876;51.738;10.050;2023-11-21T03:26:31;98744.97;;;6.39;100.00
5703;BME280;2876;51.738;10.050;2023-11-21T03:32:34;98761.19;;;6.59;100.00
5703;BME280;2876;51.738;10.050;2023-11-21T03:38:37;98765.25;;;6.55;100.00
5703;BME280;2876;51.738;10.050;2023-11-21T03:44:39;98761.88;;;6.46;100.00
5703;BME280;2876;51.738;10.050;2023-11-21T03:50:41;98759.25;;;6.53;100.00
5703;BME280;2876;51.738;10.050;2023-11-21T03:56:43;98764.38;;;6.69;100.00
5703;BME280;2876;51.738;10.050;2023-11-21T04:02:45;98762.34;;;6.71;100.00
5703;BME280;2876;51.738;10.050;2023-11-21T04:08:48;98779.84;;;6.80;100.00
5703;BME280;2876;51.738;10.050;2023-11-21T04:14:49;98778.56;;;6.76;100.00
5703;BME280;2876;51.738;10.050;2023-11-21T04:20:54;98781.88;;;6.78;100.00
5703;BME280;2876;51.738;10.050;2023-11-21T04:26:56;98790.50;;;6.80;100.00
5703;BME280;2876;51.738;10.050;2023-11-21T04:32:59;98787.84;;;6.80;100.00
5703;BME280;2876;51.738;10.050;2023-11-21T04:39:01;98793.44;;;6.85;100.00
5703;BME280;2876;51.738;10.050;2023-11-21T04:45:05;98794.34;;;6.93;100.00
5703;BME280;2876;51.738;10.050;2023-11-21T04:51:10;98801.31;;;6.94;100.00
5703;BME280;2876;51.738;10.050;2023-11-21T04:57:15;98812.19;;;6.92;100.00
5703;BME280;2876;51.738;10.050;2023-11-21T05:03:19;98829.19;;;6.91;100.00
5703;BME280;2876;51.738;10.050;2023-11-21T05:09:22;98830.19;;;6.90;100.00
5703;BME280;2876;51.738;10.050;2023-11-21T05:15:24;98834.13;;;6.94;100.00
5703;BME280;2876;51.738;10.050;2023-11-21T05:21:30;98839.28;;;6.96;100.00
5703;BME280;2876;51.738;10.050;2023-11-21T05:27:34;98855.09;;;6.97;100.00
5703;BME280;2876;51.738;10.050;2023-11-21T05:33:37;98859.53;;;6.75;100.00
5703;BME280;2876;51.738;10.050;2023-11-21T05:39:39;98865.84;;;6.89;100.00
5703;BME280;2876;51.738;10.050;2023-11-21T05:45:41;98867.97;;;6.94;100.00
5703;BME280;2876;51.738;10.050;2023-11-21T05:51:43;98875.41;;;6.98;100.00
5703;BME280;2876;51.738;10.050;2023-11-21T05:57:45;98873.91;;;7.10;100.00
5703;BME280;2876;51.738;10.050;2023-11-21T06:03:47;98874.97;;;7.16;100.00
5703;BME280;2876;51.738;10.050;2023-11-21T06:09:50;98877.47;;;7.18;100.00
5703;BME280;2876;51.738;10.050;2023-11-21T06:15:52;98886.78;;;7.07;100.00
5703;BME280;2876;51.738;10.050;2023-11-21T06:21:54;98886.97;;;7.05;100.00
5703;BME280;2876;51.738;10.050;2023-11-21T06:27:55;98899.38;;;7.13;100.00
5703;BME280;2876;51.738;10.050;2023-11-21T06:33:58;98901.03;;;7.14;100.00
5703;BME280;2876;51.738;10.050;2023-11-21T06:40:01;98910.66;;;7.15;100.00
5703;BME280;2876;51.738;10.050;2023-11-21T06:46:05;98922.09;;;7.09;100.00
5703;BME280;2876;51.738;10.050;2023-11-21T06:52:07;98920.81;;;7.05;100.00
5703;BME280;2876;51.738;10.050;2023-11-21T06:58:10;98925.31;;;7.04;100.00
5703;BME280;2876;51.738;10.050;2023-11-21T07:04:12;98932.09;;;7.07;100.00
5703;BME280;2876;51.738;10.050;2023-11-21T07:10:14;98941.38;;;7.11;100.00
5703;BME280;2876;51.738;10.050;2023-11-21T07:16:16;98951.19;;;7.25;100.00
5703;BME280;2876;51.738;10.050;2023-11-21T07:22:18;98967.66;;;7.29;100.00
5703;BME280;2876;51.738;10.050;2023-11-21T07:28:24;98962.22;;;7.37;100.00
5703;BME280;2876;51.738;10.050;2023-11-21T07:34:27;98971.09;;;7.44;100.00
5703;BME280;2876;51.738;10.050;2023-11-21T07:40:29;98984.69;;;7.49;100.00
5703;BME280;2876;51.738;10.050;2023-11-21T07:46:32;98982.06;;;7.71;100.00
5703;BME280;2876;51.738;10.050;2023-11-21T07:52:35;98992.59;;;7.57;100.00
5703;BME280;2876;51.738;10.050;2023-11-21T07:58:37;98998.19;;;7.62;100.00
5703;BME280;2876;51.738;10.050;2023-11-21T08:04:39;99015.81;;;7.78;100.00
5703;BME280;2876;51.738;10.050;2023-11-21T08:10:41;99017.31;;;7.66;100.00
5703;BME280;2876;51.738;10.050;2023-11-21T08:16:44;99023.56;;;7.73;100.00
5703;BME280;2876;51.738;10.050;2023-11-21T08:22:46;99028.59;;;7.83;100.00
5703;BME280;2876;51.738;10.050;2023-11-21T08:28:50;99032.59;;;7.72;100.00
5703;BME280;2876;51.738;10.050;2023-11-21T08:34:54;99042.97;;;7.82;100.00
5703;BME280;2876;51.738;10.050;2023-11-21T08:40:56;99036.56;;;7.98;100.00
5703;BME280;2876;51.738;10.050;2023-11-21T08:46:58;99043.97;;;7.81;100.00
5703;BME280;2876;51.738;10.050;2023-11-21T08:53:00;99049.50;;;7.79;100.00
5703;BME280;2876;51.738;10.050;2023-11-21T08:59:03;99052.53;;;7.76;100.00
5703;BME280;2876;51.738;10.050;2023-11-21T09:05:06;99063.38;;;7.53;100.00
5703;BME280;2876;51.738;10.050;2023-11-21T09:11:08;99069.13;;;7.72;100.00
5703;BME280;2876;51.738;10.050;2023-11-21T09:17:10;99071.63;;;7.58;100.00
5703;BME280;2876;51.738;10.050;2023-11-21T09:23:13;99077.69;;;7.67;100.00
5703;BME280;2876;51.738;10.050;2023-11-21T09:29:15;99085.44;;;7.77;100.00
5703;BME280;2876;51.738;10.050;2023-11-21T09:35:17;99082.59;;;8.00;100.00
5703;BME280;2876;51.738;10.050;2023-11-21T09:41:46;99092.44;;;7.99;100.00
5703;BME280;2876;51.738;10.050;2023-11-21T09:47:53;99089.75;;;7.99;100.00
5703;BME280;2876;51.738;10.050;2023-11-21T09:53:59;99094.16;;;8.07;100.00
5703;BME280;2876;51.738;10.050;2023-11-21T10:00:04;99102.44;;;8.12;100.00
5703;BME280;2876;51.738;10.050;2023-11-21T10:06:08;99106.72;;;8.28;100.00
5703;BME280;2876;51.738;10.050;2023-11-21T10:12:12;99111.88;;;8.29;100.00
5703;BME280;2876;51.738;10.050;2023-11-21T10:18:17;99120.97;;;8.50;100.00
5703;BME280;2876;51.738;10.050;2023-11-21T10:24:19;99134.19;;;8.36;100.00
5703;BME280;2876;51.738;10.050;2023-11-21T10:30:21;99142.81;;;8.38;100.00
5703;BME280;2876;51.738;10.050;2023-11-21T10:36:27;99141.06;;;8.31;100.00
5703;BME280;2876;51.738;10.050;2023-11-21T10:42:29;99147.25;;;8.31;100.00
5703;BME280;2876;51.738;10.050;2023-11-21T10:48:34;99149.63;;;8.62;100.00
5703;BME280;2876;51.738;10.050;2023-11-21T10:54:37;99150.84;;;8.38;100.00
5703;BME280;2876;51.738;10.050;2023-11-21T11:00:40;99159.38;;;8.70;100.00
5703;BME280;2876;51.738;10.050;2023-11-21T11:06:57;99174.09;;;8.59;100.00
5703;BME280;2876;51.738;10.050;2023-11-21T11:12:59;99185.81;;;8.58;100.00
5703;BME280;2876;51.738;10.050;2023-11-21T11:19:02;99189.91;;;8.25;100.00
5703;BME280;2876;51.738;10.050;2023-11-21T11:32:27;99197.97;;;8.10;98.90
5703;BME280;2876;51.738;10.050;2023-11-21T11:38:31;99213.34;;;7.93;99.70
5703;BME280;2876;51.738;10.050;2023-11-21T11:44:55;99216.31;;;7.69;98.63
5703;BME280;2876;51.738;10.050;2023-11-21T11:51:13;99227.75;;;7.77;98.65
5703;BME280;2876;51.738;10.050;2023-11-21T11:57:24;99234.81;;;8.00;96.89
5703;BME280;2876;51.738;10.050;2023-11-21T12:03:26;99240.72;;;7.95;95.70
5703;BME280;2876;51.738;10.050;2023-11-21T12:09:29;99241.53;;;7.66;95.25
5703;BME280;2876;51.738;10.050;2023-11-21T12:15:34;99243.56;;;8.08;94.96
5703;BME280;2876;51.738;10.050;2023-11-21T12:21:37;99243.16;;;8.26;92.78
5703;BME280;2876;51.738;10.050;2023-11-21T12:27:39;99261.16;;;8.18;93.00
5703;BME280;2876;51.738;10.050;2023-11-21T12:33:41;99274.78;;;8.23;91.00
5703;BME280;2876;51.738;10.050;2023-11-21T12:39:43;99268.06;;;7.97;90.98
5703;BME280;2876;51.738;10.050;2023-11-21T12:45:45;99274.66;;;7.72;91.59
5703;BME280;2876;51.738;10.050;2023-11-21T12:51:47;99288.88;;;7.87;90.97
5703;BME280;2876;51.738;10.050;2023-11-21T12:57:54;99293.66;;;7.92;91.35
5703;BME280;2876;51.738;10.050;2023-11-21T13:04:00;99311.97;;;7.80;91.80
5703;BME280;2876;51.738;10.050;2023-11-21T13:10:04;99310.41;;;7.85;91.26
5703;BME280;2876;51.738;10.050;2023-11-21T13:16:09;99320.34;;;7.77;90.10
5703;BME280;2876;51.738;10.050;2023-11-21T13:22:11;99324.78;;;7.47;91.97
5703;BME280;2876;51.738;10.050;2023-11-21T13:28:14;99317.50;;;7.78;90.27
5703;BME280;2876;51.738;10.050;2023-11-21T14:20:23;99425.16;;;7.48;91.21
5703;BME280;2876;51.738;10.050;2023-11-21T14:26:25;99442.50;;;7.21;91.15
5703;BME280;2876;51.738;10.050;2023-11-21T14:32:27;99442.16;;;7.24;91.31
5703;BME280;2876;51.738;10.050;2023-11-21T14:38:29;99449.75;;;7.04;92.05
5703;BME280;2876;51.738;10.050;2023-11-21T14:44:31;99455.25;;;7.02;91.40
5703;BME280;2876;51.738;10.050;2023-11-21T14:50:39;99460.09;;;6.99;91.46
5703;BME280;2876;51.738;10.050;2023-11-21T14:56:41;99459.66;;;6.95;91.48
5703;BME280;2876;51.738;10.050;2023-11-21T15:02:46;99467.28;;;6.98;90.97
5703;BME280;2876;51.738;10.050;2023-11-21T15:08:57;99473.41;;;7.07;90.08
5703;BME280;2876;51.738;10.050;2023-11-21T15:15:19;99474.06;;;6.70;90.52
5703;BME280;2876;51.738;10.050;2023-11-21T15:21:22;99491.66;;;6.87;90.75
5703;BME280;2876;51.738;10.050;2023-11-21T15:27:26;99507.38;;;6.66;90.81
5703;BME280;2876;51.738;10.050;2023-11-21T15:33:29;99514.16;;;6.76;89.99
5703;BME280;2876;51.738;10.050;2023-11-21T15:39:31;99530.03;;;6.53;90.57
5703;BME280;2876;51.738;10.050;2023-11-21T15:45:33;99537.56;;;6.50;88.68
5703;BME280;2876;51.738;10.050;2023-11-21T15:51:35;99550.00;;;6.49;87.73
5703;BME280;2876;51.738;10.050;2023-11-21T15:57:38;99561.69;;;6.48;88.23
5703;BME280;2876;51.738;10.050;2023-11-21T16:03:40;99567.34;;;6.53;86.48
5703;BME280;2876;51.738;10.050;2023-11-21T16:09:42;99572.34;;;6.48;86.92
5703;BME280;2876;51.738;10.050;2023-11-21T16:15:45;99576.16;;;6.21;87.94
5703;BME280;2876;51.738;10.050;2023-11-21T16:21:49;99591.34;;;6.37;86.73
5703;BME280;2876;51.738;10.050;2023-11-21T16:27:51;99610.13;;;6.19;86.81
5703;BME280;2876;51.738;10.050;2023-11-21T16:33:53;99621.59;;;6.12;87.35
5703;BME280;2876;51.738;10.050;2023-11-21T16:39:57;99630.25;;;6.05;87.34
5703;BME280;2876;51.738;10.050;2023-11-21T16:46:00;99644.16;;;5.91;87.97
5703;BME280;2876;51.738;10.050;2023-11-21T16:52:02;99656.63;;;5.91;87.93
5703;BME280;2876;51.738;10.050;2023-11-21T16:58:05;99664.72;;;5.81;87.90
5703;BME280;2876;51.738;10.050;2023-11-21T17:04:07;99672.81;;;5.97;86.10
5703;BME280;2876;51.738;10.050;2023-11-21T17:10:14;99681.81;;;6.04;85.91
5703;BME280;2876;51.738;10.050;2023-11-21T17:16:16;99688.53;;;5.82;86.64
5703;BME280;2876;51.738;10.050;2023-11-21T17:22:18;99703.03;;;5.88;85.32
5703;BME280;2876;51.738;10.050;2023-11-21T17:28:21;99699.19;;;5.82;85.03
5703;BME280;2876;51.738;10.050;2023-11-21T17:34:23;99733.06;;;6.06;84.73
5703;BME280;2876;51.738;10.050;2023-11-21T17:40:25;99743.38;;;6.01;85.68
5703;BME280;2876;51.738;10.050;2023-11-21T17:46:33;99744.94;;;5.86;86.14
5703;BME280;2876;51.738;10.050;2023-11-21T17:52:35;99759.31;;;5.93;86.74
5703;BME280;2876;51.738;10.050;2023-11-21T17:58:40;99762.06;;;5.83;86.65
5703;BME280;2876;51.738;10.050;2023-11-21T18:04:42;99779.31;;;5.79;86.72
5703;BME280;2876;51.738;10.050;2023-11-21T18:10:44;99785.00;;;5.58;87.34
5703;BME280;2876;51.738;10.050;2023-11-21T18:16:47;99802.38;;;5.71;88.03
5703;BME280;2876;51.738;10.050;2023-11-21T18:22:49;99800.97;;;5.58;87.86
5703;BME280;2876;51.738;10.050;2023-11-21T18:28:52;99799.53;;;5.64;87.93
5703;BME280;2876;51.738;10.050;2023-11-21T18:34:54;99820.88;;;5.72;88.09
5703;BME280;2876;51.738;10.050;2023-11-21T18:40:57;99832.50;;;5.71;87.81
5703;BME280;2876;51.738;10.050;2023-11-21T18:46:59;99847.88;;;5.85;88.23
5703;BME280;2876;51.738;10.050;2023-11-21T18:53:01;99849.72;;;5.85;88.24
5703;BME280;2876;51.738;10.050;2023-11-21T18:59:04;99863.53;;;5.63;88.70
5703;BME280;2876;51.738;10.050;2023-11-21T19:05:10;99877.25;;;5.50;88.96
5703;BME280;2876;51.738;10.050;2023-11-21T19:11:13;99880.19;;;5.47;88.54
5703;BME280;2876;51.738;10.050;2023-11-21T19:17:15;99893.69;;;5.71;87.69
5703;BME280;2876;51.738;10.050;2023-11-21T19:23:17;99907.78;;;5.46;88.26
5703;BME280;2876;51.738;10.050;2023-11-21T19:29:19;99914.53;;;5.40;88.58
5703;BME280;2876;51.738;10.050;2023-11-21T19:35:22;99913.19;;;5.18;89.35
5703;BME280;2876;51.738;10.050;2023-11-21T19:41:24;99916.75;;;5.27;88.78
5703;BME280;2876;51.738;10.050;2023-11-21T19:47:26;99905.50;;;5.33;88.15
5703;BME280;2876;51.738;10.050;2023-11-21T19:53:28;99907.44;;;5.13;88.77
5703;BME280;2876;51.738;10.050;2023-11-21T19:59:31;99922.72;;;5.11;89.03
5703;BME280;2876;51.738;10.050;2023-11-21T20:05:35;99929.97;;;5.19;88.61
5703;BME280;2876;51.738;10.050;2023-11-21T20:11:37;99940.97;;;5.06;89.13
5703;BME280;2876;51.738;10.050;2023-11-21T20:17:39;99937.88;;;5.28;88.28
5703;BME280;2876;51.738;10.050;2023-11-21T20:23:45;99955.19;;;5.15;88.93
5703;BME280;2876;51.738;10.050;2023-11-21T20:29:48;99961.84;;;5.01;87.66
5703;BME280;2876;51.738;10.050;2023-11-21T20:35:50;99967.75;;;5.13;87.51
5703;BME280;2876;51.738;10.050;2023-11-21T20:41:53;99973.19;;;4.93;88.01
5703;BME280;2876;51.738;10.050;2023-11-21T20:47:55;99980.72;;;4.98;86.79
5703;BME280;2876;51.738;10.050;2023-11-21T20:53:57;99992.41;;;5.15;86.34
5703;BME280;2876;51.738;10.050;2023-11-21T20:59:59;99987.88;;;4.97;85.30
5703;BME280;2876;51.738;10.050;2023-11-21T21:06:01;100002.72;;;4.90;85.35
5703;BME280;2876;51.738;10.050;2023-11-21T21:12:04;100006.97;;;5.11;83.10
5703;BME280;2876;51.738;10.050;2023-11-21T21:18:06;100034.53;;;4.82;84.63
5703;BME280;2876;51.738;10.050;2023-11-21T21:24:09;100035.47;;;4.81;84.71
5703;BME280;2876;51.738;10.050;2023-11-21T21:30:11;100040.03;;;4.98;83.43
5703;BME280;2876;51.738;10.050;2023-11-21T21:36:13;100053.28;;;4.71;83.61
5703;BME280;2876;51.738;10.050;2023-11-21T21:42:15;100060.44;;;4.61;84.94
5703;BME280;2876;51.738;10.050;2023-11-21T21:48:17;100072.88;;;4.70;84.74
5703;BME280;2876;51.738;10.050;2023-11-21T21:54:19;100078.03;;;4.62;83.28
5703;BME280;2876;51.738;10.050;2023-11-21T22:00:22;100089.81;;;4.59;81.37
5703;BME280;2876;51.738;10.050;2023-11-21T22:06:25;100086.16;;;4.70;81.06
5703;BME280;2876;51.738;10.050;2023-11-21T22:12:27;100098.31;;;4.63;82.10
5703;BME280;2876;51.738;10.050;2023-11-21T22:18:30;100097.34;;;4.44;79.85
5703;BME280;2876;51.738;10.050;2023-11-21T22:24:33;100121.41;;;4.43;79.50
5703;BME280;2876;51.738;10.050;2023-11-21T22:30:35;100135.53;;;4.24;78.37
5703;BME280;2876;51.738;10.050;2023-11-21T22:36:38;100127.13;;;4.09;78.96
5703;BME280;2876;51.738;10.050;2023-11-21T22:42:40;100122.19;;;3.95;78.73
5703;BME280;2876;51.738;10.050;2023-11-21T22:48:42;100122.75;;;3.79;78.89
5703;BME280;2876;51.738;10.050;2023-11-21T22:54:44;100127.97;;;4.00;78.48
5703;BME280;2876;51.738;10.050;2023-11-21T23:00:46;100118.25;;;3.70;79.92
5703;BME280;2876;51.738;10.050;2023-11-21T23:06:49;100122.78;;;3.48;81.04
5703;BME280;2876;51.738;10.050;2023-11-21T23:12:51;100130.69;;;3.08;82.22
5703;BME280;2876;51.738;10.050;2023-11-21T23:18:53;100137.97;;;2.85;82.73
5703;BME280;2876;51.738;10.050;2023-11-21T23:24:55;100140.69;;;2.74;82.79
5703;BME280;2876;51.738;10.050;2023-11-21T23:30:57;100149.81;;;2.60;83.30
5703;BME280;2876;51.738;10.050;2023-11-21T23:36:59;100150.28;;;2.54;83.59
5703;BME280;2876;51.738;10.050;2023-11-21T23:43:01;100149.81;;;2.28;84.48
5703;BME280;2876;51.738;10.050;2023-11-21T23:49:04;100151.66;;;2.16;84.53
5703;BME280;2876;51.738;10.050;2023-11-21T23:55:07;100159.47;;;2.18;85.12
